KTIW/TIW METAR and TAF weather

Enter ICAO airport designator
Station Type Date Time Source
KTIW METAR 2021/01/17 18:53 UTC NOAA

KTIW 171853Z 20004KT 10SM BKN004 BKN008 OVC012 07/06 A3047 RMK AO2 SLP321 T00720061


Station Type Date Time Source
KTIW Decoded METAR 2021/01/17 18:53 UTC NOAA

Tacoma, Tacoma Narrows Airport, WA, United States (KTIW) 47-16-03N 122-34-34W 96M
Jan 17, 2021 - 01:53 PM EST / 2021.01.17 1853 UTC
Wind: from the SSW (200 degrees) at 5 MPH (4 KT):0
Visibility: 10 mile(s):0
Sky conditions: overcast
Temperature: 45.0 F (7.2 C)
Dew Point: 43.0 F (6.1 C)
Relative Humidity: 92%
Pressure (altimeter): 30.47 in. Hg (1031 hPa)
ob: KTIW 171853Z 20004KT 10SM BKN004 BKN008 OVC012 07/06 A3047 RMK AO2 SLP321 T00720061
cycle: 19

Station Type Date Time Source
KTIW TAF UTC NOAA

Error!

Example: see airport list